Home   Weather   Germany   Beckum   Past weeks
Flag for Germany

Past Weather in Beckum, North Rhine-Westphalia, Germany — Yesterday and Last 2 Weeks

Currently: 57 °F. Overcast. (Weather station: Dortmund / Wickede, Germany). See more current weather

Past Weather in Beckum — Graph

°F

Beckum Temperature Yesterday

Maximum temperature yesterday: 70 °F (at 3:50 pm)
Minimum temperature yesterday: 57 °F (at 4:50 am)
Average temperature yesterday: 63 °F

High & Low Weather Summary for the Past Weeks

 TemperatureHumidityPressure
High82 °F (Jul 18, 5:20 pm)100% (Jul 15, 3:20 am)30.27 "Hg (Jul 15, 3:20 am)
Low52 °F (Jul 20, 4:50 am)42% (Jul 23, 5:50 pm)29.77 "Hg (Jul 24, 11:50 am)
Average66 °F75%30.02 "Hg
* Reported Jul 15 3:20 am — Jul 30 3:20 am, Beckum. Weather by CustomWeather, © 2021

Note: Actual official high and low records may vary slightly from our data, if they occured in-between our weather recording intervals... More about our weather records

Beckum Weather History for the Previous 24 Hours

Scroll right to see more
 ConditionsComfort  
Time TempWeatherWind HumidityBarometerVisibility
3:20 am
Fri, Jul 30
57 °FPassing clouds.9 mph82%29.86 "HgN/A
2:50 am55 °FPassing clouds.9 mph82%29.86 "HgN/A
2:20 am55 °FPassing clouds.9 mph82%29.86 "HgN/A
1:50 am57 °FPassing clouds.8 mph77%29.86 "HgN/A
1:20 am59 °FPassing clouds.8 mph72%29.86 "HgN/A
12:50 am59 °FCool.9 mph72%29.86 "HgN/A
12:20 am57 °FPassing clouds.9 mph77%29.86 "HgN/A
11:50 pm
Thu, Jul 29
59 °FPassing clouds.8 mph72%29.86 "HgN/A
11:20 pm61 °FPassing clouds.10 mph68%29.89 "HgN/A
10:50 pm61 °FClear.10 mph68%29.89 "Hg10 mi
10:20 pm63 °FClear.10 mph64%29.89 "Hg10 mi
9:50 pm63 °FClear.10 mph64%29.89 "Hg10 mi
9:20 pm63 °FSunny.9 mph59%29.89 "Hg10 mi
8:50 pm66 °FSunny.10 mph49%29.86 "Hg10 mi
8:20 pm66 °FSunny.13 mph52%29.86 "Hg10 mi
7:50 pm68 °FPassing clouds.13 mph49%29.86 "HgN/A
7:20 pm68 °FSunny.12 mph53%29.86 "Hg10 mi
6:50 pm68 °FSunny.15 mph53%29.86 "Hg10 mi
6:20 pm70 °FSunny.15 mph50%29.86 "Hg10 mi
5:50 pm70 °FSunny.17 mph46%29.86 "Hg10 mi
5:20 pm70 °FSunny.16 mph46%29.86 "Hg10 mi
4:50 pm68 °FSunny.16 mph49%29.86 "Hg10 mi
4:20 pm70 °FSunny.17 mph50%29.86 "Hg10 mi
3:50 pm70 °FSunny.18 mph50%29.86 "Hg10 mi
3:20 pm68 °FSunny.18 mph49%29.89 "Hg10 mi
2:50 pm66 °FScattered clouds.12 mph52%29.89 "HgN/A
1:50 pm66 °FScattered clouds.18 mph52%29.89 "HgN/A
1:20 pm68 °FScattered clouds.14 mph56%29.86 "HgN/A
12:50 pm68 °FScattered clouds.18 mph56%29.89 "HgN/A
12:20 pm64 °FPartly sunny.17 mph60%29.86 "HgN/A
11:50 am64 °FScattered clouds.17 mph60%29.86 "HgN/A
11:20 am64 °FScattered clouds.18 mph64%29.86 "HgN/A
10:50 am64 °FPartly sunny.18 mph64%29.86 "HgN/A
10:20 am63 °FBroken clouds.18 mph64%29.86 "HgN/A
9:50 am63 °FScattered clouds.20 mph68%29.86 "HgN/A
9:20 am63 °FPassing clouds.16 mph68%29.86 "HgN/A
8:50 am61 °FPassing clouds.17 mph77%29.86 "HgN/A
8:20 am61 °FPassing clouds.17 mph77%29.86 "HgN/A
7:50 am61 °FPassing clouds.15 mph77%29.86 "HgN/A
7:20 am59 °FSunny.14 mph82%29.83 "Hg10 mi
6:50 am59 °FSunny.13 mph82%29.83 "Hg10 mi
6:20 am57 °FSunny.15 mph88%29.83 "Hg10 mi
5:50 am57 °FSunny.12 mph88%29.83 "Hg10 mi
5:20 am57 °FClear.14 mph88%29.83 "Hg10 mi
4:50 am57 °FPassing clouds.14 mph88%29.83 "HgN/A
4:20 am59 °FPassing clouds.15 mph82%29.83 "HgN/A
Weather by CustomWeather, © 2021

See weather overview